Time;durP1;ratioP1;P1;durP2;ratioP2;P2;SDS_P1;SDS_P2;PMS_P1;PMS_P2;Temp;Humidity;BMP_temperature;BMP_pressure;BME280_temperature;BME280_humidity;BME280_pressure;Samples;Min_cycle;Max_cycle;Signal;HPM_P1;HPM_P2
2023/05/28 00:01:12;;;;;;;4.95;3.33;;;19.90;55.60;;;;;;5074904;28;20177;-66
2023/05/28 00:03:38;;;;;;;5.38;4.13;;;19.90;55.70;;;;;;5075966;28;20186;-67
2023/05/28 00:06:04;;;;;;;4.00;3.20;;;19.90;55.70;;;;;;5075062;28;20537;-67
2023/05/28 00:08:30;;;;;;;4.82;3.20;;;19.90;55.70;;;;;;5075383;28;20261;-65
2023/05/28 00:11:02;;;;;;;4.22;3.33;;;19.90;55.60;;;;;;5075695;28;20661;-64
2023/05/28 00:13:28;;;;;;;4.95;3.35;;;19.90;55.70;;;;;;5074753;28;20170;-65
2023/05/28 00:15:54;;;;;;;4.90;3.33;;;19.90;55.70;;;;;;5075606;28;20257;-65
2023/05/28 00:18:20;;;;;;;3.80;3.22;;;19.90;55.70;;;;;;5075601;28;20304;-66
2023/05/28 00:20:45;;;;;;;4.38;3.85;;;19.90;55.70;;;;;;5075195;28;20183;-65
2023/05/28 00:23:11;;;;;;;4.82;3.30;;;19.90;55.70;;;;;;5074839;28;20182;-65
2023/05/28 00:25:36;;;;;;;4.00;3.30;;;19.90;55.70;;;;;;5074564;28;20171;-65
2023/05/28 00:28:02;;;;;;;4.55;3.33;;;19.90;55.70;;;;;;5074525;28;20692;-65
2023/05/28 00:30:29;;;;;;;4.82;3.85;;;19.90;55.70;;;;;;5074116;28;20263;-67
2023/05/28 00:32:55;;;;;;;3.65;3.22;;;19.90;55.70;;;;;;5075502;28;20249;-66
2023/05/28 00:35:20;;;;;;;4.53;3.42;;;19.90;55.70;;;;;;5074316;28;20297;-65
2023/05/28 00:37:46;;;;;;;4.93;3.95;;;19.90;55.70;;;;;;5074977;28;20775;-66
2023/05/28 00:40:11;;;;;;;5.50;3.35;;;19.80;55.70;;;;;;5074629;28;20189;-65
2023/05/28 00:42:37;;;;;;;4.40;3.55;;;19.80;55.70;;;;;;5074675;28;20198;-66
2023/05/28 00:45:02;;;;;;;3.28;2.97;;;19.80;55.70;;;;;;5075206;28;20170;-66
2023/05/28 00:47:28;;;;;;;4.43;3.17;;;19.80;55.70;;;;;;5072958;28;20214;-65
2023/05/28 00:49:55;;;;;;;4.07;3.60;;;19.80;55.70;;;;;;5072657;28;20167;-64
2023/05/28 00:52:21;;;;;;;3.83;3.42;;;19.80;55.70;;;;;;5071910;28;20174;-65
2023/05/28 00:54:47;;;;;;;4.25;3.30;;;19.80;55.70;;;;;;5073462;28;20228;-65
2023/05/28 00:57:13;;;;;;;3.92;3.25;;;19.80;55.70;;;;;;5073268;28;20231;-66
2023/05/28 00:59:38;;;;;;;4.28;3.70;;;19.80;55.70;;;;;;5072971;28;20175;-67
2023/05/28 01:02:04;;;;;;;4.18;3.83;;;19.80;55.80;;;;;;5072375;28;20174;-66
2023/05/28 01:04:33;;;;;;;3.78;3.15;;;19.80;55.70;;;;;;5072476;28;20170;-66
2023/05/28 01:06:59;;;;;;;3.83;3.22;;;19.80;55.80;;;;;;5073059;28;20551;-66
2023/05/28 01:09:25;;;;;;;5.35;3.67;;;19.80;55.70;;;;;;5071024;28;20672;-64
2023/05/28 01:11:52;;;;;;;4.70;3.50;;;19.80;55.70;;;;;;5072399;28;20182;-64
2023/05/28 01:14:20;;;;;;;5.43;3.55;;;19.80;55.70;;;;;;5073120;28;20178;-65
2023/05/28 01:16:48;;;;;;;5.32;3.40;;;19.70;55.70;;;;;;5071294;28;20167;-65
2023/05/28 01:19:16;;;;;;;4.47;3.33;;;19.80;55.80;;;;;;5071656;28;20248;-65
2023/05/28 01:21:42;;;;;;;5.15;3.38;;;19.80;55.80;;;;;;5072907;28;20177;-64
2023/05/28 01:24:07;;;;;;;4.72;4.05;;;19.80;55.80;;;;;;5070767;28;20171;-66
2023/05/28 01:26:33;;;;;;;4.30;3.65;;;19.70;55.80;;;;;;5072029;28;20167;-65
2023/05/28 01:28:58;;;;;;;3.65;3.20;;;19.70;55.80;;;;;;5071799;28;20396;-65
2023/05/28 01:31:24;;;;;;;4.10;3.40;;;19.80;55.80;;;;;;5071907;28;20285;-66
2023/05/28 01:33:49;;;;;;;4.82;3.10;;;19.80;55.80;;;;;;5072766;28;20762;-66
2023/05/28 01:36:37;;;;;;;4.60;3.97;;;19.70;55.80;;;;;;5071180;28;20214;-67
2023/05/28 01:39:02;;;;;;;6.40;4.20;;;19.70;55.80;;;;;;5072043;28;20182;-66
2023/05/28 01:41:28;;;;;;;3.67;3.25;;;19.80;55.90;;;;;;5071368;28;20657;-65
2023/05/28 01:43:54;;;;;;;4.07;3.17;;;19.70;55.80;;;;;;5071470;28;20174;-65
2023/05/28 01:46:20;;;;;;;5.03;3.72;;;19.70;55.90;;;;;;5070423;28;20183;-65
2023/05/28 01:48:46;;;;;;;3.63;3.10;;;19.70;55.90;;;;;;5071140;28;20210;-65
2023/05/28 01:51:15;;;;;;;4.78;2.97;;;19.70;55.90;;;;;;5072100;28;20628;-64
2023/05/28 01:53:41;;;;;;;4.68;3.17;;;19.70;55.90;;;;;;5071196;28;20183;-65
2023/05/28 01:56:07;;;;;;;5.07;3.42;;;19.70;56.00;;;;;;5070368;28;20166;-65
2023/05/28 01:58:33;;;;;;;5.18;4.10;;;19.70;55.90;;;;;;5070306;28;20170;-67
2023/05/28 02:01:22;;;;;;;3.45;3.15;;;19.70;56.00;;;;;;5073093;28;20182;-67
2023/05/28 02:03:48;;;;;;;4.20;3.38;;;19.70;55.90;;;;;;5071544;28;20580;-67
2023/05/28 02:06:13;;;;;;;4.82;3.63;;;19.70;55.90;;;;;;5070946;28;20201;-65
2023/05/28 02:08:39;;;;;;;4.10;3.20;;;19.70;56.00;;;;;;5073229;28;20218;-65
2023/05/28 02:11:04;;;;;;;5.50;3.67;;;19.70;56.00;;;;;;5073318;28;20174;-64
2023/05/28 02:13:31;;;;;;;5.18;3.03;;;19.70;56.00;;;;;;5072226;28;20170;-65
2023/05/28 02:15:56;;;;;;;3.85;3.17;;;19.70;56.00;;;;;;5071643;28;20178;-64
2023/05/28 02:18:22;;;;;;;4.15;3.00;;;19.70;56.00;;;;;;5071853;28;20675;-66
2023/05/28 02:20:47;;;;;;;3.10;2.80;;;19.70;56.00;;;;;;5072666;28;20676;-65
2023/05/28 02:23:13;;;;;;;4.05;3.20;;;19.70;56.00;;;;;;5073069;28;20578;-65
2023/05/28 02:25:41;;;;;;;3.85;3.10;;;19.70;56.00;;;;;;5073139;28;20653;-65
2023/05/28 02:28:07;;;;;;;4.97;3.60;;;19.70;56.00;;;;;;5071217;28;20214;-65
2023/05/28 02:30:32;;;;;;;3.92;3.40;;;19.70;56.00;;;;;;5072805;28;20235;-66
2023/05/28 02:32:58;;;;;;;4.72;3.47;;;19.70;56.00;;;;;;5073015;28;20190;-67
2023/05/28 02:35:23;;;;;;;4.57;3.58;;;19.60;56.00;;;;;;5071962;28;20261;-67
2023/05/28 02:37:52;;;;;;;4.82;3.40;;;19.60;56.00;;;;;;5072714;28;20234;-66
2023/05/28 02:40:17;;;;;;;4.60;3.40;;;19.60;56.00;;;;;;5072757;28;20224;-67
2023/05/28 02:42:43;;;;;;;4.30;3.25;;;19.60;56.00;;;;;;5072419;28;20563;-66
2023/05/28 02:45:09;;;;;;;4.88;3.53;;;19.60;56.00;;;;;;5072488;28;20586;-66
2023/05/28 02:47:34;;;;;;;3.13;2.65;;;19.60;56.00;;;;;;5072179;28;20597;-66
2023/05/28 02:50:00;;;;;;;3.42;3.10;;;19.60;56.00;;;;;;5072197;28;20251;-65
2023/05/28 02:52:25;;;;;;;3.00;2.75;;;19.60;56.00;;;;;;5072751;28;20196;-65
2023/05/28 02:54:51;;;;;;;3.67;3.22;;;19.60;56.00;;;;;;5071369;28;20656;-66
2023/05/28 02:57:16;;;;;;;4.28;3.47;;;19.60;56.00;;;;;;5072703;28;20220;-66
2023/05/28 02:59:42;;;;;;;5.43;3.50;;;19.60;56.00;;;;;;5072885;28;20212;-67
2023/05/28 03:02:07;;;;;;;4.45;3.30;;;19.60;56.10;;;;;;5071721;28;20545;-67
2023/05/28 03:04:35;;;;;;;3.83;3.15;;;19.60;56.10;;;;;;5072220;28;20661;-67
2023/05/28 03:07:01;;;;;;;3.90;3.47;;;19.60;56.10;;;;;;5072484;28;20629;-66
2023/05/28 03:09:32;;;;;;;3.45;3.08;;;19.60;56.10;;;;;;5071877;28;20192;-65
2023/05/28 03:11:58;;;;;;;4.75;3.28;;;19.50;56.10;;;;;;5072646;28;20190;-65
2023/05/28 03:14:23;;;;;;;3.88;2.97;;;19.60;56.10;;;;;;5072206;28;20178;-65
2023/05/28 03:16:49;;;;;;;3.78;3.40;;;19.60;56.70;;;;;;5072026;28;20224;-65
2023/05/28 03:19:15;;;;;;;4.40;3.25;;;19.50;56.10;;;;;;5072507;28;20178;-66
2023/05/28 03:21:40;;;;;;;4.20;3.30;;;19.50;56.10;;;;;;5072579;28;20174;-66
2023/05/28 03:24:06;;;;;;;3.50;3.20;;;19.60;56.10;;;;;;5071037;28;20166;-65
2023/05/28 03:26:32;;;;;;;5.25;3.45;;;19.60;56.10;;;;;;5072393;28;20186;-65
2023/05/28 03:28:57;;;;;;;3.28;2.95;;;19.60;56.10;;;;;;5073072;28;20217;-65
2023/05/28 03:31:27;;;;;;;3.33;3.03;;;19.60;56.10;;;;;;5074849;28;20171;-66
2023/05/28 03:33:52;;;;;;;3.28;2.97;;;19.50;56.10;;;;;;5076385;28;20182;-67
2023/05/28 03:36:18;;;;;;;4.45;3.03;;;19.50;56.10;;;;;;5076018;28;20217;-66
2023/05/28 03:38:44;;;;;;;3.20;2.83;;;19.50;56.10;;;;;;5074618;28;20170;-65
2023/05/28 03:41:09;;;;;;;3.90;3.17;;;19.50;56.10;;;;;;5075744;28;20535;-65
2023/05/28 03:43:35;;;;;;;4.40;3.53;;;19.50;56.10;;;;;;5076111;28;20182;-65
2023/05/28 03:46:00;;;;;;;5.10;2.90;;;19.50;56.10;;;;;;5075578;28;20621;-65
2023/05/28 03:48:26;;;;;;;4.15;3.63;;;19.50;56.10;;;;;;5075572;28;20206;-66
2023/05/28 03:50:52;;;;;;;3.47;3.17;;;19.50;56.10;;;;;;5076328;28;20178;-64
2023/05/28 03:53:17;;;;;;;4.32;2.97;;;19.50;56.10;;;;;;5075086;28;20196;-65
2023/05/28 03:55:43;;;;;;;3.80;3.40;;;19.50;56.10;;;;;;5075922;28;20244;-65
2023/05/28 03:58:11;;;;;;;3.08;2.58;;;19.50;56.10;;;;;;5074816;28;20182;-66
2023/05/28 04:00:36;;;;;;;3.72;2.97;;;19.50;56.10;;;;;;5075354;28;20632;-67
2023/05/28 04:03:03;;;;;;;3.17;2.83;;;19.50;56.00;;;;;;5075670;28;20213;-66
2023/05/28 04:05:29;;;;;;;4.68;3.53;;;19.50;56.00;;;;;;5074770;28;20258;-66
2023/05/28 04:07:55;;;;;;;4.07;2.90;;;19.50;56.00;;;;;;5075346;28;20314;-66
2023/05/28 04:10:20;;;;;;;4.10;3.25;;;19.50;56.00;;;;;;5075509;28;20176;-65
2023/05/28 04:12:46;;;;;;;3.70;3.40;;;19.50;56.00;;;;;;5074735;28;20215;-65
2023/05/28 04:15:11;;;;;;;3.88;3.08;;;19.60;56.00;;;;;;5075483;28;20182;-65
2023/05/28 04:17:37;;;;;;;3.78;2.90;;;19.60;56.00;;;;;;5075607;28;20227;-65
2023/05/28 04:20:06;;;;;;;3.45;2.88;;;19.50;55.90;;;;;;5074792;28;20175;-65
2023/05/28 04:22:31;;;;;;;4.10;3.30;;;19.60;55.90;;;;;;5074902;28;20236;-64
2023/05/28 04:24:57;;;;;;;4.65;3.70;;;19.60;55.90;;;;;;5074654;28;20170;-65
2023/05/28 04:27:23;;;;;;;2.97;2.65;;;19.60;55.90;;;;;;5074226;28;20617;-65
2023/05/28 04:29:48;;;;;;;4.25;3.53;;;19.60;55.90;;;;;;5075496;28;20182;-66
2023/05/28 04:32:14;;;;;;;3.20;2.90;;;19.60;55.90;;;;;;5075071;28;20178;-66
2023/05/28 04:34:42;;;;;;;4.65;3.40;;;19.60;55.80;;;;;;5074814;28;20175;-66
2023/05/28 04:37:08;;;;;;;3.85;2.97;;;19.60;55.80;;;;;;5074665;28;20261;-67
2023/05/28 04:39:34;;;;;;;4.55;3.10;;;19.60;55.80;;;;;;5074467;28;20202;-66
2023/05/28 04:42:03;;;;;;;4.32;3.17;;;19.60;55.80;;;;;;5073924;28;20293;-65
2023/05/28 04:44:30;;;;;;;4.22;3.15;;;19.60;55.90;;;;;;5074429;28;20186;-66
2023/05/28 04:46:58;;;;;;;4.47;3.03;;;19.60;55.90;;;;;;5074009;28;20189;-65
2023/05/28 04:49:24;;;;;;;3.78;3.33;;;19.60;55.90;;;;;;5074011;28;20265;-66
2023/05/28 04:51:53;;;;;;;4.20;3.35;;;19.60;55.90;;;;;;5074908;28;20248;-64
2023/05/28 04:54:19;;;;;;;5.35;3.08;;;19.60;56.00;;;;;;5074301;28;20193;-64
2023/05/28 04:56:45;;;;;;;5.07;3.20;;;19.60;55.90;;;;;;5074417;28;20254;-65
2023/05/28 04:59:11;;;;;;;3.53;2.80;;;19.60;55.90;;;;;;5074705;28;20178;-67
2023/05/28 05:01:38;;;;;;;3.75;3.28;;;19.60;55.90;;;;;;5074155;28;20175;-66
2023/05/28 05:04:04;;;;;;;4.63;3.38;;;19.60;56.00;;;;;;5074912;28;20182;-66
2023/05/28 05:06:31;;;;;;;4.80;3.33;;;19.60;55.90;;;;;;5074475;28;20174;-66
2023/05/28 05:08:56;;;;;;;6.07;3.10;;;19.60;55.90;;;;;;5073882;28;20253;-65
2023/05/28 05:11:22;;;;;;;4.90;3.40;;;19.60;55.90;;;;;;5073968;28;20194;-64
2023/05/28 05:13:47;;;;;;;4.35;3.10;;;19.60;55.90;;;;;;5072260;28;20213;-64
2023/05/28 05:16:13;;;;;;;3.53;3.13;;;19.60;55.80;;;;;;5072917;28;20174;-66
2023/05/28 05:18:39;;;;;;;5.07;3.50;;;19.60;55.80;;;;;;5074238;28;20189;-66
2023/05/28 05:21:10;;;;;;;3.13;2.90;;;19.60;55.70;;;;;;5073764;28;20171;-65
2023/05/28 05:23:35;;;;;;;4.32;2.90;;;19.60;55.70;;;;;;5072800;28;20182;-65
2023/05/28 05:26:01;;;;;;;3.80;3.17;;;19.60;55.80;;;;;;5073977;28;20506;-65
2023/05/28 05:28:26;;;;;;;4.18;3.08;;;19.60;55.80;;;;;;5073721;28;20586;-65
2023/05/28 05:30:52;;;;;;;4.60;3.00;;;19.60;55.70;;;;;;5073493;28;20258;-66
2023/05/28 05:33:17;;;;;;;3.78;3.08;;;19.60;55.70;;;;;;5073888;28;20697;-67
2023/05/28 05:35:43;;;;;;;3.95;3.40;;;19.50;55.60;;;;;;5073927;28;20190;-67
2023/05/28 05:38:08;;;;;;;3.53;2.85;;;19.60;55.70;;;;;;5072756;28;20266;-67
2023/05/28 05:40:34;;;;;;;3.40;3.10;;;19.60;55.70;;;;;;5073824;28;20214;-66
2023/05/28 05:42:59;;;;;;;3.20;2.88;;;19.70;55.80;;;;;;5073979;28;20170;-66
2023/05/28 05:45:25;;;;;;;4.63;3.15;;;19.60;55.70;;;;;;5072792;28;20623;-66
2023/05/28 05:47:50;;;;;;;4.65;3.45;;;19.60;55.70;;;;;;5072964;28;20244;-65
2023/05/28 05:50:16;;;;;;;3.58;3.20;;;19.60;55.70;;;;;;5072674;28;20522;-65
2023/05/28 05:52:41;;;;;;;3.95;3.15;;;19.70;55.70;;;;;;5071998;28;20658;-64
2023/05/28 05:55:10;;;;;;;4.18;3.08;;;19.70;55.70;;;;;;5073073;28;20166;-65
2023/05/28 05:57:36;;;;;;;3.70;3.13;;;19.60;55.70;;;;;;5073630;28;20261;-66
2023/05/28 06:00:05;;;;;;;4.28;2.95;;;19.60;55.70;;;;;;5073277;28;20221;-67
2023/05/28 06:02:30;;;;;;;3.22;2.92;;;19.70;55.80;;;;;;5073367;28;20178;-66
2023/05/28 06:04:56;;;;;;;4.68;3.13;;;19.70;55.70;;;;;;5072717;28;20177;-66
2023/05/28 06:07:21;;;;;;;4.05;3.05;;;19.70;55.70;;;;;;5072991;28;20210;-66
2023/05/28 06:09:48;;;;;;;4.30;3.35;;;19.70;55.70;;;;;;5072877;28;20182;-64
2023/05/28 06:12:13;;;;;;;3.80;2.80;;;19.70;55.70;;;;;;5072126;28;20175;-65
2023/05/28 06:14:39;;;;;;;3.42;3.00;;;19.70;55.60;;;;;;5073325;28;20703;-65
2023/05/28 06:17:05;;;;;;;3.13;2.63;;;19.80;55.70;;;;;;5073140;28;20171;-66
2023/05/28 06:19:30;;;;;;;3.80;2.88;;;19.80;55.70;;;;;;5072414;28;20629;-66
2023/05/28 06:21:56;;;;;;;5.07;3.08;;;19.70;55.70;;;;;;5072842;28;20214;-65
2023/05/28 06:24:22;;;;;;;3.00;2.72;;;19.70;55.70;;;;;;5073124;28;20202;-65
2023/05/28 06:26:47;;;;;;;3.83;3.20;;;19.70;55.80;;;;;;5072165;28;20648;-65
2023/05/28 06:29:13;;;;;;;3.35;2.60;;;19.70;55.80;;;;;;5072821;28;20681;-64
2023/05/28 06:31:40;;;;;;;2.80;2.50;;;19.70;55.80;;;;;;5073060;28;20695;-67
2023/05/28 06:34:05;;;;;;;2.80;2.60;;;19.70;55.80;;;;;;5072318;28;20202;-67
2023/05/28 06:36:32;;;;;;;4.45;2.80;;;19.70;55.80;;;;;;5072707;28;20664;-65
2023/05/28 06:38:57;;;;;;;4.13;2.90;;;19.70;55.80;;;;;;5073063;28;20183;-66
2023/05/28 06:41:23;;;;;;;4.50;3.15;;;19.70;56.50;;;;;;5071833;28;20181;-65
2023/05/28 06:43:48;;;;;;;4.15;2.70;;;19.70;55.80;;;;;;5072950;28;20186;-66
2023/05/28 06:46:14;;;;;;;5.10;2.72;;;19.70;55.90;;;;;;5072572;28;20265;-65
2023/05/28 06:48:39;;;;;;;3.30;2.95;;;19.70;55.90;;;;;;5071840;28;20214;-65
2023/05/28 06:51:05;;;;;;;3.35;2.70;;;19.70;55.90;;;;;;5072917;28;20270;-65
2023/05/28 06:53:30;;;;;;;3.75;3.05;;;19.90;56.10;;;;;;5072924;28;20265;-65
2023/05/28 06:55:57;;;;;;;4.05;2.72;;;19.70;55.90;;;;;;5072167;28;20193;-65
2023/05/28 06:58:22;;;;;;;3.83;3.25;;;19.70;56.00;;;;;;5071165;28;20589;-67
2023/05/28 07:00:48;;;;;;;3.72;2.92;;;19.70;55.90;;;;;;5072575;28;20262;-66
2023/05/28 07:03:13;;;;;;;3.38;2.95;;;19.70;55.90;;;;;;5070946;28;20633;-67
2023/05/28 07:05:39;;;;;;;3.10;2.80;;;19.70;55.90;;;;;;5072654;28;20187;-66
2023/05/28 07:08:05;;;;;;;4.07;2.75;;;19.70;55.90;;;;;;5072137;28;20233;-65
2023/05/28 07:10:30;;;;;;;3.35;2.92;;;19.80;55.90;;;;;;5072554;28;20185;-65
2023/05/28 07:12:59;;;;;;;3.58;2.80;;;19.80;55.90;;;;;;5072553;28;20175;-65
2023/05/28 07:15:24;;;;;;;3.38;3.08;;;19.80;55.90;;;;;;5071604;28;20261;-66
2023/05/28 07:17:50;;;;;;;3.40;2.80;;;19.80;55.90;;;;;;5072397;28;20253;-65
2023/05/28 07:20:16;;;;;;;3.55;2.92;;;19.90;55.80;;;;;;5072361;28;20574;-66
2023/05/28 07:22:41;;;;;;;3.53;3.00;;;19.90;55.80;;;;;;5071925;28;20175;-65
2023/05/28 07:25:07;;;;;;;3.70;2.45;;;19.90;55.70;;;;;;5072372;28;20194;-65
2023/05/28 07:27:33;;;;;;;4.07;2.97;;;20.00;55.70;;;;;;5072567;28;20205;-65
2023/05/28 07:29:59;;;;;;;4.03;2.67;;;20.00;55.70;;;;;;5071857;28;20178;-65
2023/05/28 07:32:25;;;;;;;4.25;3.20;;;20.00;55.70;;;;;;5070886;28;20248;-66
2023/05/28 07:34:50;;;;;;;3.78;2.55;;;20.00;55.70;;;;;;5072258;28;20182;-66
2023/05/28 07:37:16;;;;;;;4.00;2.83;;;20.00;55.70;;;;;;5071017;28;20230;-66
2023/05/28 07:39:41;;;;;;;4.45;3.10;;;20.10;55.70;;;;;;5072382;28;20175;-66
2023/05/28 07:42:06;;;;;;;2.92;2.63;;;20.10;55.70;;;;;;5072128;28;20180;-65
2023/05/28 07:44:32;;;;;;;3.33;3.00;;;20.10;55.70;;;;;;5071630;28;20262;-66
2023/05/28 07:46:58;;;;;;;3.05;2.60;;;20.10;55.70;;;;;;5072312;28;20558;-65
2023/05/28 07:49:23;;;;;;;3.05;2.85;;;20.10;55.70;;;;;;5071772;28;20214;-65
2023/05/28 07:51:49;;;;;;;3.05;2.78;;;20.10;55.70;;;;;;5071699;28;20274;-64
2023/05/28 07:54:14;;;;;;;3.38;2.60;;;20.10;55.70;;;;;;5072084;28;20170;-65
2023/05/28 07:56:41;;;;;;;4.55;2.88;;;20.10;55.70;;;;;;5071985;28;20198;-64
2023/05/28 07:59:06;;;;;;;4.75;2.90;;;20.20;55.70;;;;;;5071212;28;20175;-65
2023/05/28 08:01:32;;;;;;;3.63;2.80;;;20.10;55.70;;;;;;5072126;28;20178;-65
2023/05/28 08:03:57;;;;;;;5.10;2.75;;;20.10;55.80;;;;;;5071936;28;20547;-65
2023/05/28 08:06:23;;;;;;;3.35;2.83;;;20.20;55.90;;;;;;5071035;28;20602;-64
2023/05/28 08:08:48;;;;;;;3.30;2.80;;;20.20;56.00;;;;;;5072126;28;20322;-64
2023/05/28 08:11:14;;;;;;;4.32;2.85;;;20.20;56.10;;;;;;5071749;28;20170;-64
2023/05/28 08:13:40;;;;;;;3.28;2.97;;;20.20;56.10;;;;;;5071533;28;20182;-64
2023/05/28 08:16:06;;;;;;;4.82;3.28;;;20.20;56.20;;;;;;5073533;28;20174;-64
2023/05/28 08:18:32;;;;;;;2.70;2.50;;;20.20;56.20;;;;;;5074800;28;20174;-64
2023/05/28 08:20:57;;;;;;;3.35;3.00;;;20.20;56.20;;;;;;5075534;28;20179;-64
2023/05/28 08:23:23;;;;;;;3.00;2.50;;;20.20;56.20;;;;;;5075221;28;20236;-63
2023/05/28 08:25:48;;;;;;;3.35;2.45;;;20.30;56.20;;;;;;5074771;28;20202;-63
2023/05/28 08:28:16;;;;;;;2.95;2.65;;;20.30;56.20;;;;;;5075035;28;20324;-64
2023/05/28 08:30:42;;;;;;;3.88;2.75;;;20.30;56.30;;;;;;5075107;28;20197;-64
2023/05/28 08:33:07;;;;;;;3.45;2.80;;;20.30;56.30;;;;;;5073171;28;20179;-65
2023/05/28 08:35:33;;;;;;;3.63;2.70;;;20.30;56.30;;;;;;5075337;28;20167;-66
2023/05/28 08:37:58;;;;;;;2.67;2.45;;;20.30;56.30;;;;;;5074603;28;20272;-65
2023/05/28 08:40:25;;;;;;;3.55;2.97;;;20.30;56.30;;;;;;5073542;28;20166;-65
2023/05/28 08:42:51;;;;;;;3.65;2.80;;;20.30;56.30;;;;;;5074284;28;20257;-64
2023/05/28 08:45:16;;;;;;;4.43;3.00;;;20.40;56.30;;;;;;5072725;28;20683;-64
2023/05/28 08:47:42;;;;;;;3.53;2.85;;;20.30;56.40;;;;;;5072441;28;20264;-63
2023/05/28 08:50:08;;;;;;;3.33;2.58;;;20.40;56.40;;;;;;5071935;28;20693;-64
2023/05/28 08:52:34;;;;;;;2.83;2.50;;;20.40;56.40;;;;;;5074669;28;20545;-63
2023/05/28 08:55:00;;;;;;;3.25;2.30;;;20.40;56.40;;;;;;5072478;28;20178;-64
2023/05/28 08:57:26;;;;;;;3.88;2.75;;;20.40;56.40;;;;;;5074037;28;20186;-64
2023/05/28 08:59:53;;;;;;;2.83;2.63;;;20.50;56.40;;;;;;5072377;28;20265;-64
2023/05/28 09:02:22;;;;;;;4.18;2.60;;;20.50;56.40;;;;;;5072209;28;21030;-65
2023/05/28 09:04:48;;;;;;;3.28;2.83;;;20.50;56.30;;;;;;5073545;28;20174;-64
2023/05/28 09:07:13;;;;;;;3.28;2.80;;;20.40;56.30;;;;;;5074209;28;20544;-64
2023/05/28 09:09:40;;;;;;;2.80;2.50;;;20.50;56.20;;;;;;5073477;28;20193;-63
2023/05/28 09:12:09;;;;;;;3.70;2.50;;;20.60;56.30;;;;;;5074343;28;20177;-63
2023/05/28 09:14:41;;;;;;;3.22;2.88;;;20.50;56.20;;;;;;5072179;28;20672;-64
2023/05/28 09:17:08;;;;;;;2.67;2.40;;;20.60;56.30;;;;;;5074212;28;20174;-64
2023/05/28 09:19:34;;;;;;;3.00;2.70;;;20.60;56.30;;;;;;5074392;28;20190;-62
2023/05/28 09:22:01;;;;;;;4.28;2.67;;;20.60;56.30;;;;;;5073780;28;20174;-64
2023/05/28 09:24:27;;;;;;;4.07;3.08;;;20.60;56.40;;;;;;5074000;28;20228;-63
2023/05/28 09:26:57;;;;;;;4.53;2.63;;;20.60;56.30;;;;;;5073721;28;20185;-63
2023/05/28 09:29:23;;;;;;;2.97;2.38;;;20.60;56.20;;;;;;5073133;28;20210;-64
2023/05/28 09:32:00;;;;;;;3.13;2.47;;;20.70;56.20;;;;;;5074256;28;20175;-64
2023/05/28 09:34:31;;;;;;;2.88;2.53;;;20.70;56.20;;;;;;5073987;28;20178;-65
2023/05/28 09:37:03;;;;;;;4.57;2.67;;;20.70;56.20;;;;;;5072616;28;20222;-65
2023/05/28 09:39:29;;;;;;;4.65;2.80;;;20.70;56.20;;;;;;5073487;28;20174;-65
2023/05/28 09:42:23;;;;;;;3.67;2.20;;;20.70;56.30;;;;;;5072873;28;20579;-64
2023/05/28 09:44:48;;;;;;;3.38;2.50;;;20.70;56.20;;;;;;5051462;28;20183;-64
2023/05/28 09:47:15;;;;;;;3.17;2.40;;;20.70;56.20;;;;;;5053574;28;20601;-64
2023/05/28 09:49:45;;;;;;;3.35;2.42;;;20.70;56.20;;;;;;5053634;28;20187;-64
2023/05/28 09:52:17;;;;;;;2.88;2.58;;;20.70;56.20;;;;;;5053138;28;20176;-63
2023/05/28 09:54:53;;;;;;;3.13;2.33;;;20.80;56.30;;;;;;5070279;28;20518;-63
2023/05/28 09:57:26;;;;;;;2.78;2.47;;;20.80;56.30;;;;;;5072609;28;20182;-64
2023/05/28 09:59:55;;;;;;;3.75;2.42;;;20.80;56.20;;;;;;5072486;28;20175;-65
2023/05/28 10:02:42;;;;;;;3.85;2.28;;;20.80;56.20;;;;;;5073443;28;20194;-65
2023/05/28 10:05:08;;;;;;;3.90;3.08;;;20.80;56.30;;;;;;5072011;28;20196;-64
2023/05/28 10:07:33;;;;;;;3.13;2.70;;;20.80;56.30;;;;;;5072319;28;20664;-65
2023/05/28 10:09:59;;;;;;;4.47;2.55;;;20.80;56.30;;;;;;5072119;28;20178;-63
2023/05/28 10:12:27;;;;;;;2.80;2.40;;;20.80;56.30;;;;;;5072417;28;20552;-64
2023/05/28 10:14:53;;;;;;;3.92;2.78;;;20.80;56.30;;;;;;5071999;28;20183;-63
2023/05/28 10:17:18;;;;;;;4.38;2.45;;;20.90;56.50;;;;;;5071671;28;20244;-63
2023/05/28 10:19:45;;;;;;;3.25;2.70;;;20.80;56.40;;;;;;5071513;28;20206;-64
2023/05/28 10:22:11;;;;;;;2.92;2.60;;;20.90;56.40;;;;;;5073000;28;20253;-64
2023/05/28 10:24:37;;;;;;;4.90;3.17;;;20.80;56.40;;;;;;5073079;28;20697;-63
2023/05/28 10:27:06;;;;;;;4.15;2.42;;;20.80;56.50;;;;;;5054495;28;20202;-63
2023/05/28 10:29:42;;;;;;;5.00;2.85;;;20.80;56.50;;;;;;5072949;28;20668;-64
2023/05/28 10:32:08;;;;;;;5.25;2.53;;;20.80;56.50;;;;;;5072063;28;20525;-65
2023/05/28 10:34:35;;;;;;;3.15;2.30;;;20.90;56.40;;;;;;5073251;28;20264;-65
2023/05/28 10:37:08;;;;;;;3.20;2.58;;;20.90;56.40;;;;;;5071215;28;20305;-65
2023/05/28 10:39:43;;;;;;;3.33;2.67;;;20.90;56.40;;;;;;5071411;28;20292;-65
2023/05/28 10:42:10;;;;;;;4.75;2.65;;;20.90;56.50;;;;;;5072569;28;20262;-65
2023/05/28 10:45:07;;;;;;;2.90;2.20;;;20.90;56.50;;;;;;5073115;28;20174;-64
2023/05/28 10:47:34;;;;;;;3.70;2.70;;;20.90;56.50;;;;;;5072102;28;20263;-64
2023/05/28 10:50:08;;;;;;;3.03;2.30;;;20.90;56.50;;;;;;5072831;28;20605;-63
2023/05/28 10:52:34;;;;;;;3.25;2.47;;;20.90;56.50;;;;;;5072817;28;20180;-63
2023/05/28 10:55:02;;;;;;;3.83;3.05;;;21.00;56.50;;;;;;5072223;28;20166;-64
2023/05/28 10:57:43;;;;;;;3.40;2.15;;;20.90;56.40;;;;;;5072678;28;20196;-64
2023/05/28 11:00:13;;;;;;;3.30;2.55;;;20.90;56.50;;;;;;5071917;28;20174;-65
2023/05/28 11:02:38;;;;;;;3.10;2.40;;;21.00;56.50;;;;;;5072704;28;20179;-65
2023/05/28 11:05:05;;;;;;;3.13;2.40;;;21.00;56.50;;;;;;5072413;28;20173;-65
2023/05/28 11:07:35;;;;;;;3.17;2.42;;;21.00;56.50;;;;;;5071940;28;20196;-64
2023/05/28 11:10:01;;;;;;;3.95;2.60;;;20.90;56.50;;;;;;5072834;28;20631;-63
2023/05/28 11:12:27;;;;;;;3.60;2.58;;;20.90;56.60;;;;;;5072461;28;20256;-64
2023/05/28 11:14:52;;;;;;;3.58;2.72;;;20.90;56.60;;;;;;5072020;28;20216;-64
2023/05/28 11:17:18;;;;;;;3.40;2.75;;;20.90;56.60;;;;;;5072324;28;20174;-64
2023/05/28 11:19:50;;;;;;;3.80;2.92;;;21.00;56.60;;;;;;5072439;28;20188;-63
2023/05/28 11:22:17;;;;;;;3.00;2.55;;;21.00;56.60;;;;;;5071778;28;20175;-63
2023/05/28 11:24:58;;;;;;;3.25;2.42;;;21.00;56.60;;;;;;5072718;28;20577;-62
2023/05/28 11:27:26;;;;;;;2.97;2.08;;;21.10;56.60;;;;;;5072390;28;20526;-64
2023/05/28 11:29:53;;;;;;;2.65;2.20;;;21.10;56.50;;;;;;5071810;28;20185;-64
2023/05/28 11:32:19;;;;;;;2.92;2.30;;;21.10;56.50;;;;;;5071837;28;20182;-65
2023/05/28 11:34:45;;;;;;;4.07;3.05;;;21.10;56.50;;;;;;5072213;28;20633;-65
2023/05/28 11:37:10;;;;;;;3.95;2.63;;;21.10;56.50;;;;;;5071305;28;20268;-65
2023/05/28 11:39:36;;;;;;;2.70;2.30;;;21.10;56.50;;;;;;5072663;28;20520;-64
2023/05/28 11:42:01;;;;;;;2.63;2.42;;;21.10;56.50;;;;;;5072332;28;20637;-64
2023/05/28 11:44:27;;;;;;;3.30;2.40;;;21.10;56.50;;;;;;5071190;28;20177;-65
2023/05/28 11:46:53;;;;;;;3.03;2.45;;;21.10;56.50;;;;;;5072340;28;20867;-64
2023/05/28 11:49:19;;;;;;;3.08;2.60;;;21.10;56.50;;;;;;5071821;28;20680;-64
2023/05/28 11:51:45;;;;;;;2.78;2.30;;;21.10;56.60;;;;;;5076125;28;20179;-63
2023/05/28 11:54:10;;;;;;;4.25;2.80;;;21.10;56.60;;;;;;5075779;28;20178;-63
2023/05/28 11:56:36;;;;;;;2.60;2.40;;;21.20;56.60;;;;;;5075242;28;20178;-63
2023/05/28 11:59:02;;;;;;;2.67;2.42;;;21.20;56.50;;;;;;5075916;28;20189;-65
2023/05/28 12:01:31;;;;;;;3.40;2.47;;;21.20;56.50;;;;;;5075507;28;20193;-65
2023/05/28 12:04:06;;;;;;;2.75;2.47;;;21.20;56.40;;;;;;5074036;28;20182;-67
2023/05/28 12:06:33;;;;;;;3.20;2.15;;;21.30;56.40;;;;;;5075759;28;20170;-64
2023/05/28 12:09:07;;;;;;;3.10;2.80;;;21.30;56.30;;;;;;5075521;28;20214;-63
2023/05/28 12:11:34;;;;;;;2.88;2.50;;;21.30;56.30;;;;;;5074786;28;20265;-63
2023/05/28 12:14:11;;;;;;;3.97;3.08;;;21.40;56.40;;;;;;5075417;28;20261;-66
2023/05/28 12:16:48;;;;;;;3.88;2.53;;;21.40;56.50;;;;;;5075297;28;20185;-64
2023/05/28 12:19:17;;;;;;;4.32;3.20;;;21.30;56.50;;;;;;5074365;28;20751;-64
2023/05/28 12:21:43;;;;;;;6.00;3.15;;;21.30;56.60;;;;;;5075599;28;20177;-63
2023/05/28 12:24:15;;;;;;;6.72;3.00;;;21.40;56.70;;;;;;5075082;28;20606;-64
2023/05/28 12:26:41;;;;;;;6.78;3.40;;;21.40;56.90;;;;;;5074646;28;20199;-62
2023/05/28 12:29:06;;;;;;;9.57;3.72;;;21.40;57.00;;;;;;5075120;28;20223;-60
2023/05/28 12:31:32;;;;;;;10.18;5.15;;;21.40;55.50;;;;;;5074772;28;20174;-61
2023/05/28 12:33:57;;;;;;;10.95;7.07;;;21.50;55.30;;;;;;5075169;28;20539;-62
2023/05/28 12:36:23;;;;;;;20.33;9.77;;;21.60;56.50;;;;;;5074820;28;20229;-64
2023/05/28 12:38:48;;;;;;;13.18;10.82;;;21.60;56.30;;;;;;5074168;28;20186;-62
2023/05/28 12:41:14;;;;;;;13.95;12.45;;;21.60;56.50;;;;;;5074889;28;20167;-63
2023/05/28 12:43:40;;;;;;;20.52;17.67;;;21.70;56.40;;;;;;5075146;28;20174;-64